Time;durP1;ratioP1;P1;durP2;ratioP2;P2;SDS_P1;SDS_P2;PMS_P1;PMS_P2;Temp;Humidity;BMP_temperature;BMP_pressure;BME280_temperature;BME280_humidity;BME280_pressure;Samples;Min_cycle;Max_cycle;Signal;HPM_P1;HPM_P2
2024/04/26 00:01:20;;;;;;;0.05;0.05;;;;;;;10.13;52.04;99783.81;7352544;19;20345;-60
2024/04/26 00:03:46;;;;;;;0.10;0.10;;;;;;;10.11;51.87;99791.72;7362346;19;20006;-60
2024/04/26 00:06:13;;;;;;;0.00;0.00;;;;;;;10.10;51.94;99784.81;7359388;19;20038;-60
2024/04/26 00:08:39;;;;;;;0.00;0.00;;;;;;;10.09;52.07;99790.09;7358247;19;20055;-60
2024/04/26 00:11:05;;;;;;;0.10;0.10;;;;;;;10.08;51.85;99791.81;7359260;19;20007;-61
2024/04/26 00:13:31;;;;;;;0.00;0.00;;;;;;;10.07;52.28;99792.72;7359372;19;20037;-60
2024/04/26 00:15:58;;;;;;;0.10;0.10;;;;;;;10.07;51.94;99784.03;7357463;19;20010;-60
2024/04/26 00:18:24;;;;;;;0.00;0.00;;;;;;;10.03;51.81;99785.91;7355917;19;20021;-60
2024/04/26 00:20:49;;;;;;;0.00;0.00;;;;;;;10.02;52.18;99781.59;7360690;19;20816;-60
2024/04/26 00:23:14;;;;;;;0.10;0.10;;;;;;;10.05;51.99;99799.75;7357792;19;20018;-60
2024/04/26 00:25:40;;;;;;;0.10;0.10;;;;;;;10.03;52.25;99795.50;7357747;19;20006;-59
2024/04/26 00:28:05;;;;;;;0.10;0.10;;;;;;;9.99;52.07;99789.53;7355399;19;20035;-60
2024/04/26 00:30:31;;;;;;;0.10;0.10;;;;;;;9.86;52.21;99764.78;7359043;19;20014;-60
2024/04/26 00:32:56;;;;;;;0.00;0.00;;;;;;;9.98;52.58;99785.22;7358503;19;20026;-61
2024/04/26 00:35:21;;;;;;;0.10;0.10;;;;;;;9.95;52.38;99787.94;7358382;19;20017;-60
2024/04/26 00:37:47;;;;;;;0.10;0.10;;;;;;;9.90;52.63;99782.03;7350108;19;20013;-60
2024/04/26 00:40:12;;;;;;;0.00;0.00;;;;;;;9.90;52.36;99787.25;7356630;19;20486;-60
2024/04/26 00:42:39;;;;;;;0.00;0.00;;;;;;;9.88;52.46;99783.81;7356747;19;20059;-60
2024/04/26 00:45:04;;;;;;;0.00;0.00;;;;;;;9.68;52.55;99760.19;7360725;19;20036;-60
2024/04/26 00:47:30;;;;;;;0.00;0.00;;;;;;;9.79;52.37;99779.81;7358026;19;20015;-60
2024/04/26 00:49:56;;;;;;;0.00;0.00;;;;;;;9.76;52.64;99781.66;7357040;19;20744;-61
2024/04/26 00:52:22;;;;;;;0.10;0.10;;;;;;;9.68;52.50;99775.84;7356073;19;20011;-60
2024/04/26 00:54:49;;;;;;;0.10;0.10;;;;;;;9.69;52.59;99777.56;7359744;19;20010;-60
2024/04/26 00:57:15;;;;;;;0.10;0.10;;;;;;;9.49;52.31;99755.63;7357929;19;20057;-60
2024/04/26 00:59:41;;;;;;;0.00;0.00;;;;;;;9.61;52.45;99780.41;7356373;19;20014;-60
2024/04/26 01:02:07;;;;;;;0.00;0.00;;;;;;;9.56;52.77;99783.16;7357714;19;20521;-60
2024/04/26 01:04:33;;;;;;;0.05;0.05;;;;;;;9.52;52.42;99780.72;7351662;19;20021;-60
2024/04/26 01:06:58;;;;;;;0.08;0.08;;;;;;;9.46;52.89;99781.78;7351714;19;20019;-60
2024/04/26 01:09:24;;;;;;;0.10;0.10;;;;;;;9.41;52.92;99781.06;7358352;19;20502;-59
2024/04/26 01:11:51;;;;;;;0.00;0.00;;;;;;;9.37;52.92;99771.63;7353842;19;20050;-60
2024/04/26 01:14:17;;;;;;;0.00;0.00;;;;;;;9.19;52.88;99756.63;7359404;19;20465;-60
2024/04/26 01:16:42;;;;;;;0.00;0.00;;;;;;;9.27;52.44;99780.66;7354756;19;20014;-60
2024/04/26 01:19:13;;;;;;;0.10;0.10;;;;;;;9.23;52.57;99779.06;7356728;19;20042;-59
2024/04/26 01:21:38;;;;;;;0.10;0.10;;;;;;;9.16;52.46;99782.75;7357959;19;20097;-60
2024/04/26 01:24:05;;;;;;;0.05;0.05;;;;;;;9.10;52.67;99779.44;7345718;19;20550;-60
2024/04/26 01:26:30;;;;;;;0.00;0.00;;;;;;;9.04;52.58;99779.66;7360704;19;20039;-60
2024/04/26 01:28:56;;;;;;;0.10;0.10;;;;;;;8.97;52.75;99775.53;7357062;19;20010;-59
2024/04/26 01:31:21;;;;;;;0.00;0.00;;;;;;;8.94;52.70;99782.59;7357714;19;20032;-59
2024/04/26 01:33:47;;;;;;;0.10;0.10;;;;;;;8.88;53.03;99783.63;7351410;19;20025;-60
2024/04/26 01:36:12;;;;;;;0.00;0.00;;;;;;;8.81;52.61;99784.69;7354906;19;20002;-59
2024/04/26 01:38:37;;;;;;;0.00;0.00;;;;;;;8.77;53.06;99790.91;7357349;19;20053;-60
2024/04/26 01:41:03;;;;;;;0.00;0.00;;;;;;;8.40;53.20;99734.72;7356594;19;20690;-61
2024/04/26 01:43:28;;;;;;;0.10;0.10;;;;;;;8.67;52.78;99792.06;7359957;19;20025;-59
2024/04/26 01:45:54;;;;;;;0.10;0.10;;;;;;;7.93;52.77;99677.09;7357831;19;20014;-60
2024/04/26 01:48:19;;;;;;;0.10;0.10;;;;;;;8.57;53.10;99794.94;7359064;19;20979;-59
2024/04/26 01:50:45;;;;;;;0.00;0.00;;;;;;;8.51;53.13;99782.09;7344972;19;20014;-60
2024/04/26 01:53:10;;;;;;;0.00;0.00;;;;;;;8.47;53.36;99787.47;7353658;19;19998;-60
2024/04/26 01:55:35;;;;;;;0.00;0.00;;;;;;;8.41;53.31;99778.03;7356914;19;20046;-59
2024/04/26 01:58:01;;;;;;;0.10;0.10;;;;;;;8.34;53.04;99776.50;7354103;19;20015;-60
2024/04/26 02:00:26;;;;;;;0.00;0.00;;;;;;;8.06;53.21;99735.69;7358838;19;20561;-59
2024/04/26 02:02:55;;;;;;;0.00;0.00;;;;;;;8.28;53.59;99779.28;7352469;19;20113;-59
2024/04/26 02:05:21;;;;;;;0.10;0.10;;;;;;;8.27;53.14;99786.22;7356193;19;20026;-61
2024/04/26 02:07:47;;;;;;;0.00;0.00;;;;;;;8.23;53.51;99786.34;7357761;19;20501;-60
2024/04/26 02:10:12;;;;;;;0.00;0.00;;;;;;;8.17;53.78;99783.94;7367124;19;20014;-60
2024/04/26 02:12:37;;;;;;;0.00;0.00;;;;;;;8.15;53.61;99778.75;7367356;19;20077;-59
2024/04/26 02:15:03;;;;;;;0.10;0.10;;;;;;;8.06;53.28;99776.44;7367151;19;20082;-60
2024/04/26 02:17:29;;;;;;;0.00;0.00;;;;;;;8.05;53.57;99780.75;7369006;19;20035;-60
2024/04/26 02:19:54;;;;;;;0.08;0.08;;;;;;;8.06;53.71;99785.06;7366325;19;20066;-61
2024/04/26 02:22:19;;;;;;;0.00;0.00;;;;;;;8.01;53.75;99784.34;7365520;19;20153;-61
2024/04/26 02:24:45;;;;;;;0.03;0.03;;;;;;;7.98;53.51;99786.16;7366177;19;20019;-61
2024/04/26 02:27:10;;;;;;;0.10;0.10;;;;;;;7.86;53.63;99779.56;7366940;19;20007;-59
2024/04/26 02:29:36;;;;;;;0.08;0.08;;;;;;;7.92;53.86;99778.53;7363538;19;20006;-60
2024/04/26 02:32:01;;;;;;;0.00;0.00;;;;;;;7.86;53.76;99782.16;7365881;19;20035;-60
2024/04/26 02:34:30;;;;;;;0.10;0.10;;;;;;;7.81;53.96;99771.03;7367690;19;20392;-60
2024/04/26 02:36:55;;;;;;;0.10;0.10;;;;;;;7.82;53.99;99783.13;7365431;19;20702;-60
2024/04/26 02:39:21;;;;;;;0.00;0.00;;;;;;;7.80;53.99;99784.88;7361663;19;20022;-59
2024/04/26 02:41:47;;;;;;;0.00;0.00;;;;;;;7.71;53.88;99778.22;7362055;19;20531;-60
2024/04/26 02:44:12;;;;;;;0.00;0.00;;;;;;;7.39;53.75;99724.44;7368548;19;20471;-60
2024/04/26 02:46:40;;;;;;;0.00;0.00;;;;;;;7.70;54.09;99783.44;7347657;19;20013;-61
2024/04/26 02:49:05;;;;;;;0.00;0.00;;;;;;;7.68;54.17;99785.22;7362819;19;20006;-60
2024/04/26 02:51:31;;;;;;;0.00;0.00;;;;;;;7.66;54.02;99781.81;7365874;19;20010;-59
2024/04/26 02:53:56;;;;;;;0.08;0.08;;;;;;;7.62;54.10;99780.19;7362949;19;20025;-60
2024/04/26 02:56:22;;;;;;;0.10;0.10;;;;;;;7.61;54.26;99781.09;7367218;19;20022;-60
2024/04/26 02:58:47;;;;;;;0.00;0.00;;;;;;;7.60;54.21;99781.94;7362417;19;20019;-59
2024/04/26 03:01:13;;;;;;;0.00;0.00;;;;;;;7.59;54.17;99782.84;7366434;19;20018;-60
2024/04/26 03:03:41;;;;;;;0.00;0.00;;;;;;;7.58;54.30;99784.59;7356933;19;20558;-59
2024/04/26 03:06:08;;;;;;;0.00;0.00;;;;;;;7.56;54.29;99791.59;7364845;19;20022;-59
2024/04/26 03:08:34;;;;;;;0.00;0.00;;;;;;;7.53;54.23;99791.66;7364364;19;20122;-60
2024/04/26 03:11:00;;;;;;;0.00;0.00;;;;;;;7.09;54.51;99717.41;7364931;19;20094;-59
2024/04/26 03:13:26;;;;;;;0.00;0.00;;;;;;;7.49;54.33;99790.00;7348593;19;20007;-61
2024/04/26 03:15:51;;;;;;;0.00;0.00;;;;;;;7.46;54.11;99785.75;7353142;19;20014;-60
2024/04/26 03:18:16;;;;;;;0.05;0.05;;;;;;;7.44;54.36;99790.13;7358953;19;20434;-59
2024/04/26 03:20:42;;;;;;;0.10;0.10;;;;;;;7.42;54.20;99786.72;7359198;19;20558;-59
2024/04/26 03:23:07;;;;;;;0.00;0.00;;;;;;;7.26;54.58;99762.03;7363998;19;20329;-59
2024/04/26 03:25:33;;;;;;;0.00;0.00;;;;;;;7.37;54.09;99780.78;7361874;19;20118;-60
2024/04/26 03:27:58;;;;;;;0.00;0.00;;;;;;;7.33;54.38;99773.97;7364621;19;20035;-60
2024/04/26 03:30:23;;;;;;;0.00;0.00;;;;;;;7.32;54.61;99782.66;7366933;19;20007;-60
2024/04/26 03:32:49;;;;;;;0.03;0.03;;;;;;;7.14;54.45;99762.31;7362563;19;20358;-60
2024/04/26 03:35:14;;;;;;;0.10;0.10;;;;;;;7.26;54.37;99782.81;7366722;19;20014;-59
2024/04/26 03:37:40;;;;;;;0.00;0.00;;;;;;;7.09;54.41;99761.56;7362584;19;20423;-60
2024/04/26 03:40:06;;;;;;;0.10;0.10;;;;;;;7.21;54.21;99787.25;7363552;19;20086;-60
2024/04/26 03:42:31;;;;;;;0.00;0.00;;;;;;;6.98;54.50;99752.28;7353826;19;20024;-59
2024/04/26 03:44:56;;;;;;;0.00;0.00;;;;;;;7.12;54.55;99782.25;7358859;19;20006;-60
2024/04/26 03:47:22;;;;;;;0.00;0.00;;;;;;;7.01;54.75;99772.13;7364086;19;20014;-59
2024/04/26 03:49:48;;;;;;;0.00;0.00;;;;;;;7.08;54.70;99789.25;7364384;19;20014;-60
2024/04/26 03:52:13;;;;;;;0.00;0.00;;;;;;;7.06;54.58;99792.78;7360045;19;20006;-60
2024/04/26 03:54:38;;;;;;;0.10;0.10;;;;;;;6.86;54.47;99756.91;7356407;19;20007;-60
2024/04/26 03:57:04;;;;;;;0.00;0.00;;;;;;;6.96;54.82;99787.81;7360707;19;20018;-61
2024/04/26 03:59:29;;;;;;;0.00;0.00;;;;;;;6.93;54.73;99789.59;7363802;19;20015;-61
2024/04/26 04:01:55;;;;;;;0.00;0.00;;;;;;;6.88;54.84;99792.31;7362267;19;20014;-60
2024/04/26 04:04:20;;;;;;;0.10;0.10;;;;;;;6.91;54.52;99794.00;7363886;19;20010;-60
2024/04/26 04:06:46;;;;;;;0.00;0.00;;;;;;;6.92;54.84;99798.28;7358941;19;20029;-60
2024/04/26 04:09:11;;;;;;;0.03;0.03;;;;;;;6.90;54.60;99800.94;7363474;19;20025;-61
2024/04/26 04:11:37;;;;;;;0.00;0.00;;;;;;;6.86;54.40;99794.09;7364439;19;20039;-59
2024/04/26 04:14:02;;;;;;;0.10;0.10;;;;;;;6.81;54.91;99795.94;7367143;19;20486;-60
2024/04/26 04:16:28;;;;;;;0.08;0.08;;;;;;;6.83;54.60;99799.34;7362444;19;20042;-59
2024/04/26 04:18:53;;;;;;;0.00;0.00;;;;;;;6.72;54.68;99784.00;7359314;19;21446;-61
2024/04/26 04:21:19;;;;;;;0.00;0.00;;;;;;;6.76;54.78;99793.44;7361411;19;20010;-59
2024/04/26 04:23:45;;;;;;;0.00;0.00;;;;;;;6.84;54.91;99803.63;7364286;19;20788;-60
2024/04/26 04:26:10;;;;;;;0.10;0.10;;;;;;;6.78;55.03;99796.00;7361682;19;20584;-60
2024/04/26 04:28:42;;;;;;;0.00;0.00;;;;;;;6.84;54.56;99795.84;7364548;19;20018;-60
2024/04/26 04:31:09;;;;;;;0.00;0.00;;;;;;;6.81;54.72;99801.13;7360501;19;20014;-59
2024/04/26 04:33:35;;;;;;;0.05;0.05;;;;;;;6.89;54.85;99808.72;7364408;19;20014;-60
2024/04/26 04:36:00;;;;;;;0.10;0.10;;;;;;;6.88;54.84;99805.28;7360304;19;20026;-60
2024/04/26 04:38:25;;;;;;;0.00;0.00;;;;;;;6.89;54.79;99806.97;7361232;19;20019;-60
2024/04/26 04:40:51;;;;;;;0.00;0.00;;;;;;;6.91;54.93;99810.41;7360610;19;20007;-61
2024/04/26 04:43:16;;;;;;;0.00;0.00;;;;;;;6.75;54.71;99785.69;7363510;19;20033;-59
2024/04/26 04:45:42;;;;;;;0.10;0.10;;;;;;;6.89;55.04;99809.56;7359784;19;20027;-61
2024/04/26 04:48:08;;;;;;;0.10;0.10;;;;;;;6.92;54.80;99817.31;7362851;19;20026;-60
2024/04/26 04:50:33;;;;;;;0.00;0.00;;;;;;;6.93;54.83;99816.41;7359687;19;20018;-60
2024/04/26 04:52:59;;;;;;;0.00;0.00;;;;;;;6.94;54.83;99815.53;7362023;19;20006;-60
2024/04/26 04:55:24;;;;;;;0.00;0.00;;;;;;;6.94;54.44;99818.13;7359384;19;20027;-60
2024/04/26 04:57:50;;;;;;;0.03;0.03;;;;;;;7.01;54.37;99819.72;7351721;19;20618;-60
2024/04/26 05:00:15;;;;;;;0.08;0.08;;;;;;;7.01;54.22;99819.72;7362084;19;20105;-60
2024/04/26 05:02:41;;;;;;;0.00;0.00;;;;;;;7.08;54.33;99829.94;7362970;19;20018;-59
2024/04/26 05:05:06;;;;;;;0.00;0.00;;;;;;;7.08;54.67;99829.94;7359940;19;20507;-60
2024/04/26 05:07:32;;;;;;;0.05;0.05;;;;;;;7.14;54.57;99829.81;7359247;19;20074;-60
2024/04/26 05:09:57;;;;;;;0.10;0.10;;;;;;;7.17;54.46;99832.34;7359209;19;20011;-60
2024/04/26 05:12:22;;;;;;;0.05;0.05;;;;;;;7.21;54.50;99842.63;7363284;19;20010;-60
2024/04/26 05:14:48;;;;;;;0.00;0.00;;;;;;;7.24;54.60;99837.34;7361784;19;20014;-60
2024/04/26 05:17:13;;;;;;;0.10;0.10;;;;;;;7.25;55.03;99830.44;7364252;19;20415;-60
2024/04/26 05:19:39;;;;;;;0.00;0.00;;;;;;;7.30;54.75;99836.38;7354495;19;20013;-60
2024/04/26 05:22:05;;;;;;;0.00;0.00;;;;;;;7.29;54.94;99824.25;7360629;19;20051;-59
2024/04/26 05:24:30;;;;;;;0.10;0.10;;;;;;;7.36;54.32;99846.63;7359037;19;20025;-60
2024/04/26 05:26:56;;;;;;;0.00;0.00;;;;;;;7.36;54.27;99833.63;7363074;19;20089;-59
2024/04/26 05:29:23;;;;;;;0.00;0.00;;;;;;;7.41;54.68;99838.72;7353795;19;20007;-61
2024/04/26 05:31:48;;;;;;;0.08;0.08;;;;;;;7.42;54.56;99840.41;7362354;19;20052;-60
2024/04/26 05:34:14;;;;;;;0.10;0.10;;;;;;;7.43;54.53;99840.38;7358683;19;20019;-60
2024/04/26 05:36:40;;;;;;;0.00;0.00;;;;;;;7.42;54.51;99830.88;7362629;19;20011;-59
2024/04/26 05:39:05;;;;;;;0.00;0.00;;;;;;;7.47;54.75;99843.75;7348821;19;20011;-60
2024/04/26 05:41:32;;;;;;;0.00;0.00;;;;;;;7.32;54.30;99819.00;7363768;19;20019;-60
2024/04/26 05:43:57;;;;;;;0.00;0.00;;;;;;;7.48;54.52;99846.31;7364432;19;20006;-60
2024/04/26 05:46:23;;;;;;;0.10;0.10;;;;;;;7.46;54.55;99842.91;7369060;19;20386;-60
2024/04/26 05:48:48;;;;;;;0.00;0.00;;;;;;;7.50;54.44;99849.75;7362333;19;20018;-59
2024/04/26 05:51:16;;;;;;;0.08;0.08;;;;;;;7.51;54.67;99855.78;7367315;19;20007;-60
2024/04/26 05:53:42;;;;;;;0.10;0.10;;;;;;;7.51;54.34;99851.44;7364967;19;20014;-60
2024/04/26 05:56:07;;;;;;;0.10;0.10;;;;;;;7.53;54.27;99860.03;7365584;19;20356;-59
2024/04/26 05:58:34;;;;;;;0.10;0.10;;;;;;;7.56;54.26;99866.09;7361177;19;20018;-60
2024/04/26 06:01:00;;;;;;;0.10;0.10;;;;;;;7.50;54.42;99859.25;7367145;19;20010;-60
2024/04/26 06:03:25;;;;;;;0.10;0.10;;;;;;;7.56;54.36;99861.75;7368562;19;20038;-60
2024/04/26 06:05:52;;;;;;;0.10;0.10;;;;;;;7.59;54.17;99864.25;7368096;19;20010;-60
2024/04/26 06:08:18;;;;;;;0.00;0.00;;;;;;;7.62;54.19;99873.72;7362230;19;20007;-59
2024/04/26 06:10:43;;;;;;;0.10;0.10;;;;;;;7.59;54.10;99855.59;7366765;19;20488;-59
2024/04/26 06:13:09;;;;;;;0.00;0.00;;;;;;;7.64;54.34;99867.59;7365887;19;20010;-60
2024/04/26 06:15:36;;;;;;;0.10;0.10;;;;;;;7.68;54.18;99878.75;7367240;19;20066;-60
2024/04/26 06:18:01;;;;;;;0.00;0.00;;;;;;;7.71;54.49;99878.72;7365583;19;20066;-60
2024/04/26 06:20:29;;;;;;;0.10;0.10;;;;;;;7.74;54.42;99878.63;7367213;19;20013;-59
2024/04/26 06:22:54;;;;;;;0.10;0.10;;;;;;;7.77;54.10;99879.41;7366415;19;20524;-60
2024/04/26 06:25:20;;;;;;;0.00;0.00;;;;;;;7.79;54.21;99876.75;7362259;19;20073;-60
2024/04/26 06:27:45;;;;;;;0.00;0.00;;;;;;;7.84;54.21;99880.09;7360191;19;20009;-60
2024/04/26 06:30:11;;;;;;;0.00;0.00;;;;;;;7.91;54.13;99881.66;7366099;19;20474;-60
2024/04/26 06:32:36;;;;;;;0.00;0.00;;;;;;;7.94;54.23;99880.72;7363782;19;20006;-60
2024/04/26 06:35:02;;;;;;;0.10;0.10;;;;;;;7.79;53.60;99851.63;7364752;19;20709;-61
2024/04/26 06:37:27;;;;;;;0.00;0.00;;;;;;;8.06;54.41;99888.22;7369324;19;20512;-60
2024/04/26 06:39:52;;;;;;;0.10;0.10;;;;;;;7.72;54.29;99820.63;7363330;19;20619;-61
2024/04/26 06:42:18;;;;;;;0.10;0.10;;;;;;;8.17;54.43;99890.56;7364056;19;20011;-60
2024/04/26 06:44:47;;;;;;;0.10;0.10;;;;;;;8.18;54.10;99885.31;7362329;19;20009;-60
2024/04/26 06:47:13;;;;;;;0.10;0.10;;;;;;;8.29;54.36;99891.06;7365495;19;20036;-60
2024/04/26 06:49:38;;;;;;;0.10;0.10;;;;;;;8.37;54.01;99890.06;7363530;19;20014;-61
2024/04/26 06:52:03;;;;;;;0.10;0.10;;;;;;;8.40;54.14;99890.81;7368691;19;20044;-60
2024/04/26 06:54:29;;;;;;;0.00;0.00;;;;;;;8.50;54.22;99902.69;7365941;19;20014;-60
2024/04/26 06:56:54;;;;;;;0.00;0.00;;;;;;;8.56;54.11;99896.47;7368216;19;20074;-60
2024/04/26 06:59:20;;;;;;;0.10;0.10;;;;;;;8.65;54.23;99895.34;7350910;19;20336;-60
2024/04/26 07:01:47;;;;;;;0.00;0.00;;;;;;;8.73;54.27;99909.03;7363604;19;20042;-60
2024/04/26 07:04:13;;;;;;;0.10;0.10;;;;;;;8.76;54.30;99898.50;7362427;19;20021;-60
2024/04/26 07:06:41;;;;;;;0.10;0.10;;;;;;;8.89;54.85;99899.03;7363333;19;20014;-60
2024/04/26 07:09:06;;;;;;;0.00;0.00;;;;;;;8.97;54.73;99902.25;7365714;19;20022;-60
2024/04/26 07:11:32;;;;;;;0.00;0.00;;;;;;;9.01;54.74;99893.47;7365629;19;20094;-60
2024/04/26 07:13:57;;;;;;;0.10;0.10;;;;;;;9.14;54.86;99900.03;7364387;19;20019;-61
2024/04/26 07:16:22;;;;;;;0.10;0.10;;;;;;;9.22;54.59;99910.19;7362800;19;20003;-60
2024/04/26 07:18:48;;;;;;;0.10;0.10;;;;;;;9.30;55.08;99903.03;7362803;19;20015;-60
2024/04/26 07:21:13;;;;;;;0.10;0.10;;;;;;;9.40;54.77;99907.06;7364536;19;20002;-61
2024/04/26 07:23:39;;;;;;;0.00;0.00;;;;;;;9.48;54.93;99905.06;7361935;19;20612;-60
2024/04/26 07:26:04;;;;;;;0.10;0.10;;;;;;;9.54;54.80;99911.84;7359169;19;20327;-61
2024/04/26 07:28:31;;;;;;;0.10;0.10;;;;;;;9.66;54.50;99918.41;7364105;19;20585;-60
2024/04/26 07:30:57;;;;;;;0.00;0.00;;;;;;;9.74;55.23;99924.25;7346296;19;20006;-60
2024/04/26 07:33:25;;;;;;;0.00;0.00;;;;;;;9.71;55.22;99916.53;7364775;19;20628;-60
2024/04/26 07:35:51;;;;;;;0.05;0.05;;;;;;;9.89;54.91;99931.59;7363928;19;20499;-60
2024/04/26 07:38:16;;;;;;;0.00;0.00;;;;;;;9.96;55.12;99933.09;7364572;19;20863;-59
2024/04/26 07:40:42;;;;;;;0.08;0.08;;;;;;;10.03;54.85;99929.38;7306744;19;20014;-59
2024/04/26 07:43:07;;;;;;;0.00;0.00;;;;;;;10.07;54.59;99930.97;7362779;19;20156;-60
2024/04/26 07:45:33;;;;;;;0.10;0.10;;;;;;;10.04;54.62;99920.66;7358985;19;20014;-61
2024/04/26 07:47:58;;;;;;;0.10;0.10;;;;;;;10.18;54.50;99928.00;7362509;19;20397;-60
2024/04/26 07:50:24;;;;;;;0.10;0.10;;;;;;;10.22;54.24;99931.38;7356756;19;20013;-61
2024/04/26 07:52:49;;;;;;;0.10;0.10;;;;;;;10.26;54.23;99935.63;7363670;19;20017;-60
2024/04/26 07:55:15;;;;;;;0.00;0.00;;;;;;;10.29;54.32;99935.50;7359663;19;20007;-60
2024/04/26 07:57:40;;;;;;;0.00;0.00;;;;;;;10.33;54.34;99934.50;7362584;19;20035;-60
2024/04/26 08:00:06;;;;;;;0.10;0.10;;;;;;;10.37;54.50;99942.19;7360606;19;20011;-61
2024/04/26 08:02:32;;;;;;;0.03;0.03;;;;;;;10.41;54.86;99940.31;7366265;19;20003;-60
2024/04/26 08:05:01;;;;;;;0.00;0.00;;;;;;;10.45;54.55;99943.69;7361758;19;20017;-60
2024/04/26 08:07:27;;;;;;;0.10;0.10;;;;;;;10.49;54.51;99938.31;7358200;19;20018;-60
2024/04/26 08:09:52;;;;;;;0.10;0.10;;;;;;;10.52;54.73;99948.63;7360594;19;20353;-61
2024/04/26 08:12:17;;;;;;;0.10;0.10;;;;;;;10.55;54.26;99930.25;7362374;19;20016;-60
2024/04/26 08:14:43;;;;;;;0.10;0.10;;;;;;;10.59;54.60;99929.25;7360175;19;20105;-60
2024/04/26 08:17:10;;;;;;;0.10;0.10;;;;;;;10.63;54.30;99946.50;7361106;19;20002;-60
2024/04/26 08:19:35;;;;;;;0.00;0.00;;;;;;;10.69;54.22;99944.56;7359823;19;20006;-60
2024/04/26 08:22:01;;;;;;;0.10;0.10;;;;;;;10.72;54.44;99937.50;7361852;19;20014;-60
2024/04/26 08:24:26;;;;;;;0.00;0.00;;;;;;;10.78;54.58;99945.09;7355432;19;21113;-60
2024/04/26 08:26:52;;;;;;;0.00;0.00;;;;;;;10.65;54.67;99912.53;7363087;19;20019;-60
2024/04/26 08:29:17;;;;;;;0.10;0.10;;;;;;;10.91;54.55;99945.53;7358274;19;20048;-60
2024/04/26 08:31:42;;;;;;;0.00;0.00;;;;;;;10.85;54.31;99925.72;7361244;19;20090;-60
2024/04/26 08:34:08;;;;;;;0.03;0.03;;;;;;;11.03;54.47;99942.47;7356119;19;20446;-60
2024/04/26 08:36:33;;;;;;;0.10;0.10;;;;;;;11.10;54.53;99941.34;7355821;19;20006;-60
2024/04/26 08:38:59;;;;;;;0.10;0.10;;;;;;;11.20;54.47;99951.44;7356109;19;20115;-60
2024/04/26 08:41:26;;;;;;;0.10;0.10;;;;;;;11.24;54.13;99942.56;7358037;19;20028;-60
2024/04/26 08:43:52;;;;;;;0.00;0.00;;;;;;;11.35;54.17;99950.84;7357269;19;20014;-60
2024/04/26 08:46:18;;;;;;;0.10;0.10;;;;;;;11.43;53.88;99952.28;7360291;19;20019;-60
2024/04/26 08:48:45;;;;;;;0.10;0.10;;;;;;;11.50;53.83;99947.66;7355810;19;20011;-59
2024/04/26 08:51:12;;;;;;;0.00;0.00;;;;;;;11.50;53.88;99934.59;7355422;19;20010;-60
2024/04/26 08:53:38;;;;;;;0.10;0.10;;;;;;;11.67;53.33;99942.63;7361188;19;20807;-60
2024/04/26 08:56:08;;;;;;;0.10;0.10;;;;;;;11.79;53.48;99953.53;7359358;19;20133;-60
2024/04/26 08:58:36;;;;;;;0.10;0.10;;;;;;;11.88;52.95;99950.59;7360649;19;20085;-61
2024/04/26 09:01:02;;;;;;;;;;;;;;;12.10;52.99;99946.16;7362680;19;20807;-61
2024/04/26 09:03:27;;;;;;;0.00;0.00;;;;;;;12.18;52.96;99943.25;7359783;19;19926;-61
2024/04/26 09:05:53;;;;;;;0.10;0.10;;;;;;;12.33;52.66;99941.75;7360145;19;20015;-60
2024/04/26 09:08:18;;;;;;;0.00;0.00;;;;;;;12.51;52.73;99951.44;7359554;19;20416;-60
2024/04/26 09:10:44;;;;;;;0.00;0.00;;;;;;;12.73;52.33;99947.00;7354627;19;20488;-61
2024/04/26 09:13:10;;;;;;;0.10;0.10;;;;;;;12.98;51.80;99940.69;7360886;19;20017;-60
2024/04/26 09:15:36;;;;;;;0.10;0.10;;;;;;;13.17;51.65;99940.69;7359134;19;20011;-60
2024/04/26 09:18:01;;;;;;;0.10;0.10;;;;;;;13.35;51.45;99944.28;7354823;19;20021;-60
2024/04/26 09:20:28;;;;;;;0.03;0.03;;;;;;;13.53;50.37;99947.81;7358473;19;20010;-60
2024/04/26 09:22:53;;;;;;;0.10;0.10;;;;;;;13.59;49.96;99943.13;7357468;19;20026;-61
2024/04/26 09:25:19;;;;;;;0.08;0.08;;;;;;;13.70;49.57;99951.34;7354992;19;20563;-60
2024/04/26 09:27:44;;;;;;;0.10;0.10;;;;;;;13.75;50.09;99951.97;7357547;19;20019;-60
2024/04/26 09:30:10;;;;;;;0.10;0.10;;;;;;;13.77;49.96;99958.00;7357378;19;20371;-60
2024/04/26 09:32:37;;;;;;;0.10;0.10;;;;;;;13.81;49.67;99948.22;7360578;19;20018;-61
2024/04/26 09:35:04;;;;;;;0.10;0.10;;;;;;;13.80;49.80;99954.38;7348012;19;20010;-59
2024/04/26 09:37:33;;;;;;;0.10;0.10;;;;;;;13.86;49.86;99950.59;7358797;19;20559;-60
2024/04/26 09:40:00;;;;;;;0.10;0.10;;;;;;;13.87;50.06;99952.31;7350245;19;20018;-60
2024/04/26 09:42:26;;;;;;;0.10;0.10;;;;;;;14.00;50.03;99945.56;7356648;19;20455;-60
2024/04/26 09:44:52;;;;;;;0.10;0.10;;;;;;;14.24;49.88;99946.97;7348953;19;20021;-60
2024/04/26 09:47:23;;;;;;;0.10;0.10;;;;;;;14.57;49.74;99943.59;7353332;19;20832;-61
2024/04/26 09:49:50;;;;;;;0.10;0.10;;;;;;;14.96;48.47;99950.34;7351755;19;20015;-60
2024/04/26 09:52:15;;;;;;;0.10;0.10;;;;;;;15.36;47.86;99953.44;7352144;19;20375;-61
2024/04/26 09:54:46;;;;;;;0.10;0.10;;;;;;;15.72;47.55;99962.00;7357150;19;20019;-61
2024/04/26 09:57:13;;;;;;;0.10;0.10;;;;;;;15.90;46.74;99948.72;7352327;19;20010;-60
2024/04/26 09:59:39;;;;;;;0.10;0.10;;;;;;;16.23;46.97;99957.34;7357083;19;20431;-60
2024/04/26 10:02:10;;;;;;;0.10;0.10;;;;;;;16.49;45.73;99961.09;7352483;19;20019;-60
2024/04/26 10:04:36;;;;;;;0.10;0.10;;;;;;;16.57;44.93;99955.34;7360152;19;20562;-60
2024/04/26 10:07:02;;;;;;;0.10;0.10;;;;;;;16.67;45.44;99956.50;7353304;19;20030;-60
2024/04/26 10:09:28;;;;;;;0.10;0.10;;;;;;;16.82;44.89;99957.38;7352511;19;20028;-60
2024/04/26 10:11:54;;;;;;;0.10;0.10;;;;;;;17.05;45.94;99961.28;7353667;19;20018;-60
2024/04/26 10:14:25;;;;;;;0.10;0.10;;;;;;;17.42;45.19;99959.00;7357533;19;20450;-60
2024/04/26 10:16:51;;;;;;;0.10;0.10;;;;;;;17.67;43.93;99964.41;7354538;19;20013;-60
2024/04/26 10:19:16;;;;;;;0.10;0.10;;;;;;;17.97;44.20;99960.78;7353741;19;20471;-61
2024/04/26 10:21:42;;;;;;;0.10;0.10;;;;;;;18.24;43.10;99968.69;7352693;19;20025;-61
2024/04/26 10:24:08;;;;;;;0.10;0.10;;;;;;;18.46;42.73;99958.38;7354954;19;20371;-60
2024/04/26 10:26:33;;;;;;;0.10;0.10;;;;;;;18.59;42.42;99958.41;7357040;19;20428;-60
2024/04/26 10:29:11;;;;;;;0.10;0.10;;;;;;;18.81;42.48;99963.97;7355447;19;20366;-60
2024/04/26 10:31:38;;;;;;;0.00;0.00;;;;;;;18.68;41.05;99965.75;7357210;19;20061;-60
2024/04/26 10:34:14;;;;;;;0.10;0.10;;;;;;;18.66;41.83;99970.28;7364905;19;20017;-60
2024/04/26 10:36:47;;;;;;;0.10;0.10;;;;;;;18.49;41.23;99973.19;7364264;19;20010;-60
2024/04/26 10:39:25;;;;;;;0.10;0.10;;;;;;;18.30;41.42;99969.16;7357596;19;20013;-61
2024/04/26 10:41:50;;;;;;;0.10;0.10;;;;;;;18.04;39.76;99967.34;7361969;19;20033;-61
2024/04/26 10:44:16;;;;;;;0.15;0.15;;;;;;;17.82;40.78;99971.38;7360314;19;20007;-60
2024/04/26 10:46:41;;;;;;;0.10;0.10;;;;;;;17.66;40.23;99973.28;7363764;19;20031;-60
2024/04/26 10:49:13;;;;;;;0.10;0.10;;;;;;;17.51;41.48;99976.91;7362789;19;20014;-61
2024/04/26 10:51:38;;;;;;;0.00;0.00;;;;;;;17.13;40.38;99953.72;7365892;19;20024;-60
2024/04/26 10:54:05;;;;;;;0.10;0.10;;;;;;;17.12;40.68;99983.69;7360612;19;21606;-61
2024/04/26 10:56:42;;;;;;;0.10;0.10;;;;;;;17.08;41.94;99982.19;7363614;19;20002;-60
2024/04/26 10:59:17;;;;;;;0.10;0.10;;;;;;;17.10;42.70;99975.03;7359205;19;20010;-60
2024/04/26 11:01:43;;;;;;;0.10;0.10;;;;;;;17.24;42.87;99980.31;7362221;19;20017;-60
2024/04/26 11:04:16;;;;;;;0.10;0.10;;;;;;;17.58;44.54;99970.28;7364368;19;20644;-60
2024/04/26 11:06:41;;;;;;;0.10;0.10;;;;;;;18.05;42.75;99984.91;7361341;19;20043;-61
2024/04/26 11:09:11;;;;;;;0.05;0.05;;;;;;;18.58;43.10;99980.50;7356338;19;20428;-60
2024/04/26 11:11:58;;;;;;;0.10;0.10;;;;;;;19.22;42.21;99986.72;7360078;19;20022;-61
2024/04/26 11:14:25;;;;;;;0.10;0.10;;;;;;;19.91;41.49;99982.63;7357449;19;20015;-60
2024/04/26 11:16:51;;;;;;;;;;;;;;;20.68;44.18;99990.22;7364860;19;20010;-60
2024/04/26 11:19:30;;;;;;;0.10;0.10;;;;;;;20.99;40.73;99978.97;7359484;19;19921;-60
2024/04/26 11:21:56;;;;;;;0.10;0.10;;;;;;;21.17;38.13;99991.75;7362698;19;20039;-60
2024/04/26 11:24:24;;;;;;;0.10;0.10;;;;;;;21.29;36.46;99992.59;7358363;19;20010;-60
2024/04/26 11:26:53;;;;;;;0.10;0.10;;;;;;;21.27;35.75;99974.13;7363417;19;20061;-60
2024/04/26 11:29:18;;;;;;;0.20;0.20;;;;;;;21.31;36.01;99991.56;7357164;19;20006;-60
2024/04/26 11:31:47;;;;;;;0.10;0.10;;;;;;;21.29;37.82;99981.97;7359992;19;20784;-60
2024/04/26 11:34:13;;;;;;;0.10;0.10;;;;;;;21.32;37.07;99990.59;7363010;19;20014;-60